Time;durP1;ratioP1;P1;durP2;ratioP2;P2;SDS_P1;SDS_P2;PMS_P1;PMS_P2;Temp;Humidity;BMP_temperature;BMP_pressure;BME280_temperature;BME280_humidity;BME280_pressure;Samples;Min_cycle;Max_cycle;Signal;HPM_P1;HPM_P2
2021/05/25 00:00:43;;;;;;;3.80;1.80;;;;;;;;;;5091244;28;20028;-68
2021/05/25 00:03:08;;;;;;;3.50;1.40;;;;;;;;;;5087038;28;20048;-68
2021/05/25 00:05:34;;;;;;;2.50;1.33;;;;;;;;;;5089608;28;20116;-67
2021/05/25 00:08:00;;;;;;;2.70;1.30;;;;;;;;;;5091349;28;20016;-67
2021/05/25 00:10:26;;;;;;;2.63;1.17;;;;;;;;;;5095378;28;20020;-67
2021/05/25 00:12:51;;;;;;;3.07;1.50;;;;;;;;;;5094452;28;20035;-68
2021/05/25 00:15:18;;;;;;;3.07;1.23;;;;;;;;;;5094943;28;20028;-68
2021/05/25 00:17:43;;;;;;;2.20;1.27;;;;;;;;;;5092760;28;20070;-68
2021/05/25 00:20:10;;;;;;;2.17;1.03;;;;;;;;;;5093924;28;20775;-68
2021/05/25 00:22:35;;;;;;;3.93;1.53;;;;;;;;;;5091130;28;20020;-68
2021/05/25 00:25:01;;;;;;;3.80;1.33;;;;;;;;;;5094242;28;20096;-68
2021/05/25 00:27:26;;;;;;;3.10;1.53;;;;;;;;;;5088032;28;20039;-68
2021/05/25 00:29:51;;;;;;;2.50;1.30;;;;;;;;;;5086751;28;20127;-68
2021/05/25 00:32:16;;;;;;;2.63;1.40;;;;;;;;;;5094856;28;20031;-68
2021/05/25 00:34:42;;;;;;;2.77;1.43;;;;;;;;;;5093653;28;20039;-68
2021/05/25 00:37:07;;;;;;;3.27;1.37;;;;;;;;;;5089975;28;20376;-68
2021/05/25 00:39:32;;;;;;;3.47;1.33;;;;;;;;;;5095312;28;20124;-68
2021/05/25 00:41:58;;;;;;;2.20;1.07;;;;;;;;;;5092986;28;20028;-68
2021/05/25 00:44:23;;;;;;;5.13;1.70;;;;;;;;;;5093376;28;20036;-68
2021/05/25 00:46:48;;;;;;;4.13;1.70;;;;;;;;;;5092046;28;20012;-68
2021/05/25 00:49:13;;;;;;;6.10;1.57;;;;;;;;;;5092500;28;20082;-68
2021/05/25 00:51:39;;;;;;;4.07;1.30;;;;;;;;;;5094781;28;20043;-68
2021/05/25 00:54:04;;;;;;;2.63;1.40;;;;;;;;;;5090722;28;20035;-67
2021/05/25 00:56:30;;;;;;;4.10;1.33;;;;;;;;;;5089280;28;20031;-68
2021/05/25 00:58:56;;;;;;;2.83;1.20;;;;;;;;;;5094372;28;20476;-68
2021/05/25 01:01:21;;;;;;;3.20;1.00;;;;;;;;;;5089582;28;20345;-68
2021/05/25 01:03:46;;;;;;;3.97;1.17;;;;;;;;;;5088438;22;20060;-70
2021/05/25 01:06:11;;;;;;;3.70;1.13;;;;;;;;;;5075949;28;20020;-70
2021/05/25 01:08:38;;;;;;;2.97;1.30;;;;;;;;;;5073510;28;20162;-70
2021/05/25 01:11:06;;;;;;;3.80;1.43;;;;;;;;;;5078840;28;20032;-69
2021/05/25 01:13:41;;;;;;;5.10;1.37;;;;;;;;;;5075002;28;20012;-70
2021/05/25 01:16:07;;;;;;;3.83;1.50;;;;;;;;;;5077049;28;20125;-70
2021/05/25 01:18:32;;;;;;;4.10;1.37;;;;;;;;;;5069870;28;20062;-70
2021/05/25 01:20:58;;;;;;;4.20;1.40;;;;;;;;;;5072342;28;20372;-70
2021/05/25 01:23:23;;;;;;;3.90;1.20;;;;;;;;;;5072830;28;20024;-70
2021/05/25 01:25:48;;;;;;;3.40;1.23;;;;;;;;;;5073100;28;20031;-70
2021/05/25 01:28:15;;;;;;;2.63;1.20;;;;;;;;;;5079529;28;20029;-70
2021/05/25 01:30:44;;;;;;;3.40;1.70;;;;;;;;;;5073345;28;20024;-70
2021/05/25 01:33:10;;;;;;;3.33;1.50;;;;;;;;;;5076269;28;20375;-70
2021/05/25 01:35:36;;;;;;;2.80;1.13;;;;;;;;;;5072306;28;20031;-70
2021/05/25 01:38:02;;;;;;;2.40;1.10;;;;;;;;;;5071959;28;20063;-70
2021/05/25 01:40:28;;;;;;;2.63;1.13;;;;;;;;;;5080892;28;20490;-70
2021/05/25 01:42:54;;;;;;;2.03;1.00;;;;;;;;;;5077072;28;20029;-70
2021/05/25 01:45:20;;;;;;;4.23;1.07;;;;;;;;;;5078966;28;20034;-70
2021/05/25 01:47:46;;;;;;;2.27;0.93;;;;;;;;;;5074965;28;20024;-70
2021/05/25 01:50:14;;;;;;;2.20;0.97;;;;;;;;;;5078313;28;20479;-70
2021/05/25 01:52:49;;;;;;;2.43;1.00;;;;;;;;;;5076589;28;20059;-70
2021/05/25 01:55:22;;;;;;;2.23;0.93;;;;;;;;;;5082046;28;20028;-70
2021/05/25 01:57:48;;;;;;;2.33;1.03;;;;;;;;;;5079623;28;20471;-70
2021/05/25 02:00:13;;;;;;;2.23;1.00;;;;;;;;;;5072095;28;20024;-70
2021/05/25 02:02:38;;;;;;;3.13;1.10;;;;;;;;;;5076885;28;20051;-70
2021/05/25 02:05:04;;;;;;;2.70;1.30;;;;;;;;;;5073222;28;20036;-70
2021/05/25 02:07:29;;;;;;;2.17;0.90;;;;;;;;;;5071363;28;20024;-70
2021/05/25 02:09:55;;;;;;;2.90;1.13;;;;;;;;;;5072876;28;20032;-70
2021/05/25 02:12:20;;;;;;;3.77;0.90;;;;;;;;;;5077064;28;20170;-70
2021/05/25 02:14:45;;;;;;;2.70;1.00;;;;;;;;;;5069464;28;20320;-70
2021/05/25 02:17:10;;;;;;;2.77;1.00;;;;;;;;;;5072491;28;20032;-70
2021/05/25 02:19:36;;;;;;;2.80;1.20;;;;;;;;;;5071693;28;20473;-70
2021/05/25 02:22:01;;;;;;;3.17;0.90;;;;;;;;;;5072587;28;20029;-70
2021/05/25 02:24:26;;;;;;;2.03;1.10;;;;;;;;;;5071652;28;20028;-70
2021/05/25 02:26:51;;;;;;;2.43;1.00;;;;;;;;;;5085082;28;20048;-70
2021/05/25 02:29:17;;;;;;;3.00;1.30;;;;;;;;;;5071178;28;20447;-70
2021/05/25 02:31:42;;;;;;;2.87;1.40;;;;;;;;;;5072715;28;20471;-70
2021/05/25 02:34:07;;;;;;;3.13;1.50;;;;;;;;;;5071632;28;20081;-70
2021/05/25 02:36:33;;;;;;;3.07;1.23;;;;;;;;;;5071847;28;20044;-70
2021/05/25 02:38:58;;;;;;;5.33;2.27;;;;;;;;;;5080468;28;20065;-70
2021/05/25 02:41:23;;;;;;;3.30;1.30;;;;;;;;;;5072606;28;20040;-70
2021/05/25 02:43:50;;;;;;;4.47;1.80;;;;;;;;;;5071801;28;20361;-70
2021/05/25 02:46:15;;;;;;;3.50;1.37;;;;;;;;;;5071861;28;20089;-70
2021/05/25 02:48:41;;;;;;;4.17;1.80;;;;;;;;;;5078089;28;20029;-70
2021/05/25 02:51:06;;;;;;;4.43;2.00;;;;;;;;;;5071255;28;20482;-70
2021/05/25 02:53:31;;;;;;;4.37;1.97;;;;;;;;;;5079363;28;20023;-70
2021/05/25 02:55:57;;;;;;;5.03;1.70;;;;;;;;;;5073532;28;20084;-70
2021/05/25 02:58:22;;;;;;;5.13;2.07;;;;;;;;;;5075287;28;20013;-70
2021/05/25 03:00:48;;;;;;;5.80;2.13;;;;;;;;;;5069664;28;20603;-70
2021/05/25 03:03:13;;;;;;;4.30;2.23;;;;;;;;;;5067718;28;20020;-70
2021/05/25 03:05:39;;;;;;;4.17;1.93;;;;;;;;;;5064308;28;20432;-70
2021/05/25 03:08:05;;;;;;;5.63;2.63;;;;;;;;;;5068515;28;20024;-70
2021/05/25 03:10:31;;;;;;;4.37;1.80;;;;;;;;;;5069994;28;20030;-70
2021/05/25 03:12:57;;;;;;;5.17;2.30;;;;;;;;;;5069377;28;20055;-70
2021/05/25 03:15:26;;;;;;;7.43;2.90;;;;;;;;;;5071932;28;20483;-70
2021/05/25 03:17:52;;;;;;;5.73;2.80;;;;;;;;;;5068920;28;20494;-70
2021/05/25 03:20:17;;;;;;;6.60;2.60;;;;;;;;;;5066825;28;20032;-70
2021/05/25 03:22:42;;;;;;;7.37;3.30;;;;;;;;;;5068450;28;20040;-70
2021/05/25 03:25:09;;;;;;;6.63;3.10;;;;;;;;;;5069315;28;20038;-70
2021/05/25 03:27:34;;;;;;;7.33;3.40;;;;;;;;;;5084254;28;20027;-70
2021/05/25 03:29:59;;;;;;;6.53;3.03;;;;;;;;;;5070830;28;20029;-70
2021/05/25 03:32:25;;;;;;;7.67;3.00;;;;;;;;;;5069475;28;20028;-70
2021/05/25 03:34:50;;;;;;;7.77;3.30;;;;;;;;;;5071065;28;20488;-70
2021/05/25 03:37:15;;;;;;;5.77;2.70;;;;;;;;;;5071320;28;20043;-70
2021/05/25 03:39:40;;;;;;;7.50;3.57;;;;;;;;;;5072607;28;20063;-70
2021/05/25 03:42:06;;;;;;;6.53;3.30;;;;;;;;;;5069750;28;20086;-70
2021/05/25 03:44:31;;;;;;;7.63;3.40;;;;;;;;;;5070503;28;20074;-70
2021/05/25 03:46:57;;;;;;;6.90;2.63;;;;;;;;;;5089801;28;20101;-70
2021/05/25 03:49:22;;;;;;;6.93;3.33;;;;;;;;;;5074875;28;20020;-70
2021/05/25 03:51:47;;;;;;;5.87;2.93;;;;;;;;;;5082264;28;20127;-70
2021/05/25 03:54:20;;;;;;;7.63;2.97;;;;;;;;;;5061646;28;20036;-70
2021/05/25 03:58:47;;;;;;;6.10;2.80;;;;;;;;;;5086396;28;20061;-70
2021/05/25 03:59:34;;;;;;;6.00;2.87;;;;;;;;;;5075252;28;20063;-70
2021/05/25 04:01:59;;;;;;;6.23;3.00;;;;;;;;;;5072990;28;20483;-70
2021/05/25 04:04:24;;;;;;;7.43;2.60;;;;;;;;;;5078729;28;20093;-70
2021/05/25 04:06:50;;;;;;;5.70;2.87;;;;;;;;;;5074583;28;20043;-70
2021/05/25 04:09:15;;;;;;;5.87;2.50;;;;;;;;;;5077709;28;20032;-70
2021/05/25 04:11:40;;;;;;;6.93;3.20;;;;;;;;;;5072197;28;20063;-70
2021/05/25 04:14:05;;;;;;;6.17;2.90;;;;;;;;;;5075008;28;20485;-70
2021/05/25 04:16:31;;;;;;;7.07;3.23;;;;;;;;;;5076765;28;20089;-70
2021/05/25 04:18:56;;;;;;;6.73;3.00;;;;;;;;;;5074985;28;20383;-70
2021/05/25 04:21:22;;;;;;;7.50;2.80;;;;;;;;;;5078768;28;20039;-70
2021/05/25 04:23:47;;;;;;;6.80;2.60;;;;;;;;;;5077931;28;20472;-70
2021/05/25 04:26:12;;;;;;;4.43;2.37;;;;;;;;;;5071803;28;20021;-71
2021/05/25 04:28:37;;;;;;;6.63;2.97;;;;;;;;;;5066989;28;20035;-71
2021/05/25 04:31:03;;;;;;;5.17;2.40;;;;;;;;;;5068009;28;20046;-70
2021/05/25 04:33:29;;;;;;;6.03;2.63;;;;;;;;;;5079518;28;20029;-70
2021/05/25 04:35:54;;;;;;;7.27;2.73;;;;;;;;;;5081659;28;20025;-71
2021/05/25 04:38:19;;;;;;;5.97;2.70;;;;;;;;;;5074699;28;20028;-70
2021/05/25 04:40:45;;;;;;;7.33;3.03;;;;;;;;;;5071168;28;20028;-70
2021/05/25 04:43:11;;;;;;;6.20;2.73;;;;;;;;;;5072455;28;20032;-70
2021/05/25 04:45:38;;;;;;;5.17;2.40;;;;;;;;;;5080748;28;20115;-70
2021/05/25 04:48:04;;;;;;;5.27;2.50;;;;;;;;;;5079352;28;20035;-70
2021/05/25 04:50:29;;;;;;;6.70;2.80;;;;;;;;;;5087207;28;20444;-70
2021/05/25 04:52:54;;;;;;;7.10;2.80;;;;;;;;;;5065787;28;20050;-70
2021/05/25 04:55:21;;;;;;;5.97;2.93;;;;;;;;;;5081009;28;20060;-68
2021/05/25 04:57:46;;;;;;;8.13;2.80;;;;;;;;;;5079681;28;20036;-68
2021/05/25 05:00:12;;;;;;;5.80;2.40;;;;;;;;;;5080453;28;20379;-68
2021/05/25 05:02:38;;;;;;;6.87;2.80;;;;;;;;;;5076295;28;20035;-68
2021/05/25 05:05:04;;;;;;;8.57;2.93;;;;;;;;;;5078408;28;20049;-68
2021/05/25 05:07:29;;;;;;;5.50;2.90;;;;;;;;;;5065987;28;20016;-68
2021/05/25 05:09:54;;;;;;;7.03;3.00;;;;;;;;;;5078887;28;20165;-68
2021/05/25 05:12:20;;;;;;;5.73;2.83;;;;;;;;;;5080135;28;20041;-68
2021/05/25 05:14:45;;;;;;;6.20;2.63;;;;;;;;;;5073523;28;20568;-68
2021/05/25 05:17:10;;;;;;;6.00;2.77;;;;;;;;;;5074286;28;20039;-68
2021/05/25 05:19:35;;;;;;;6.23;2.67;;;;;;;;;;5078836;28;20175;-68
2021/05/25 05:22:01;;;;;;;6.23;2.80;;;;;;;;;;5074799;28;20028;-68
2021/05/25 05:24:26;;;;;;;7.07;2.83;;;;;;;;;;5080522;28;20086;-68
2021/05/25 05:26:51;;;;;;;12.97;2.20;;;;;;;;;;5078410;28;20020;-68
2021/05/25 05:29:16;;;;;;;6.27;3.00;;;;;;;;;;5081679;28;20044;-68
2021/05/25 05:31:42;;;;;;;6.87;2.67;;;;;;;;;;5070897;28;20025;-68
2021/05/25 05:34:07;;;;;;;5.83;2.63;;;;;;;;;;5072761;28;20099;-70
2021/05/25 05:36:33;;;;;;;7.13;2.87;;;;;;;;;;5073411;28;20029;-70
2021/05/25 05:38:58;;;;;;;5.90;3.07;;;;;;;;;;5074885;28;20440;-70
2021/05/25 05:41:23;;;;;;;5.63;2.80;;;;;;;;;;5075626;28;20035;-70
2021/05/25 05:43:49;;;;;;;7.20;2.93;;;;;;;;;;5077944;28;20093;-70
2021/05/25 05:46:15;;;;;;;5.43;2.80;;;;;;;;;;5075610;28;20036;-70
2021/05/25 05:48:40;;;;;;;7.00;2.97;;;;;;;;;;5077877;28;20020;-70
2021/05/25 05:51:06;;;;;;;6.47;2.80;;;;;;;;;;5071214;28;20024;-70
2021/05/25 05:53:31;;;;;;;7.57;2.93;;;;;;;;;;5073065;28;20016;-70
2021/05/25 05:55:56;;;;;;;5.57;2.37;;;;;;;;;;5069985;28;20033;-71
2021/05/25 05:58:21;;;;;;;6.23;2.97;;;;;;;;;;5070480;28;20028;-71
2021/05/25 06:00:47;;;;;;;5.83;2.20;;;;;;;;;;5068872;28;20040;-70
2021/05/25 06:03:12;;;;;;;5.50;2.60;;;;;;;;;;5075710;28;20030;-70
2021/05/25 06:05:37;;;;;;;6.27;2.50;;;;;;;;;;5068535;28;20052;-70
2021/05/25 06:08:04;;;;;;;5.17;2.13;;;;;;;;;;5076946;28;20027;-70
2021/05/25 06:10:31;;;;;;;5.80;2.17;;;;;;;;;;5072978;28;20025;-70
2021/05/25 06:12:56;;;;;;;5.97;2.07;;;;;;;;;;5075638;28;20475;-70
2021/05/25 06:15:21;;;;;;;7.63;2.27;;;;;;;;;;5074803;28;20028;-71
2021/05/25 06:17:47;;;;;;;7.23;2.20;;;;;;;;;;5071469;28;20058;-71
2021/05/25 06:20:13;;;;;;;6.20;1.80;;;;;;;;;;5074404;28;20021;-71
2021/05/25 06:22:38;;;;;;;3.80;1.70;;;;;;;;;;5081628;28;20060;-71
2021/05/25 06:25:03;;;;;;;6.37;2.13;;;;;;;;;;5072905;28;20029;-71
2021/05/25 06:27:29;;;;;;;5.87;2.10;;;;;;;;;;5075507;28;20476;-71
2021/05/25 06:29:54;;;;;;;6.23;2.40;;;;;;;;;;5070316;28;20035;-71
2021/05/25 06:32:19;;;;;;;4.63;2.23;;;;;;;;;;5072132;28;20020;-71
2021/05/25 06:34:44;;;;;;;4.00;1.93;;;;;;;;;;5076379;28;20074;-71
2021/05/25 06:37:10;;;;;;;3.90;1.80;;;;;;;;;;5073976;28;20037;-71
2021/05/25 06:39:35;;;;;;;3.63;2.03;;;;;;;;;;5073874;28;20032;-71
2021/05/25 06:42:00;;;;;;;9.63;1.73;;;;;;;;;;5071106;28;20088;-71
2021/05/25 06:44:26;;;;;;;2.93;1.40;;;;;;;;;;5087155;28;20086;-71
2021/05/25 06:46:51;;;;;;;2.27;1.10;;;;;;;;;;5071046;28;20029;-71
2021/05/25 06:49:16;;;;;;;4.17;1.47;;;;;;;;;;5071978;28;20039;-71
2021/05/25 06:51:41;;;;;;;4.20;1.40;;;;;;;;;;5070818;28;20380;-70
2021/05/25 06:54:07;;;;;;;3.67;1.30;;;;;;;;;;5070665;28;20071;-69
2021/05/25 06:56:33;;;;;;;3.70;0.93;;;;;;;;;;5073980;28;20040;-69
2021/05/25 06:58:58;;;;;;;3.40;1.40;;;;;;;;;;5075012;28;20039;-69
2021/05/25 07:01:24;;;;;;;3.07;1.17;;;;;;;;;;5076710;28;20036;-69
2021/05/25 07:03:51;;;;;;;4.50;1.30;;;;;;;;;;5070007;28;20048;-69
2021/05/25 07:06:17;;;;;;;3.47;1.37;;;;;;;;;;5065279;28;20077;-69
2021/05/25 07:08:42;;;;;;;4.90;1.60;;;;;;;;;;5070526;28;20453;-70
2021/05/25 07:11:08;;;;;;;3.37;1.60;;;;;;;;;;5087446;28;20095;-70
2021/05/25 07:13:33;;;;;;;3.33;1.50;;;;;;;;;;5074008;28;20640;-70
2021/05/25 07:15:58;;;;;;;2.60;1.20;;;;;;;;;;5075934;28;20137;-70
2021/05/25 07:18:24;;;;;;;3.27;1.40;;;;;;;;;;5071105;28;20021;-70
2021/05/25 07:20:49;;;;;;;2.93;1.37;;;;;;;;;;5073608;28;20618;-69
2021/05/25 07:23:14;;;;;;;2.60;1.60;;;;;;;;;;5070862;28;20148;-70
2021/05/25 07:25:40;;;;;;;2.80;1.43;;;;;;;;;;5078605;28;20040;-71
2021/05/25 07:28:05;;;;;;;3.40;1.20;;;;;;;;;;5062072;28;20031;-71
2021/05/25 07:30:30;;;;;;;3.37;1.40;;;;;;;;;;5079401;28;20028;-71
2021/05/25 07:32:55;;;;;;;3.87;1.20;;;;;;;;;;5068412;28;20021;-71
2021/05/25 07:35:21;;;;;;;3.70;1.20;;;;;;;;;;5062425;28;20029;-71
2021/05/25 07:37:46;;;;;;;2.40;1.17;;;;;;;;;;5067525;28;20496;-71
2021/05/25 07:40:14;;;;;;;5.30;1.20;;;;;;;;;;5066818;28;20046;-71
2021/05/25 07:42:40;;;;;;;3.87;1.20;;;;;;;;;;5068069;28;20028;-71
2021/05/25 07:45:06;;;;;;;3.07;1.10;;;;;;;;;;5070583;28;20038;-71
2021/05/25 07:47:32;;;;;;;2.20;1.10;;;;;;;;;;5070835;28;20033;-71
2021/05/25 07:49:57;;;;;;;3.40;1.40;;;;;;;;;;5071000;28;20016;-71
2021/05/25 07:52:22;;;;;;;2.10;1.07;;;;;;;;;;5057517;28;20035;-71
2021/05/25 07:54:47;;;;;;;4.13;1.23;;;;;;;;;;5070671;28;20325;-70
2021/05/25 07:57:13;;;;;;;3.10;1.20;;;;;;;;;;5072741;28;20116;-70
2021/05/25 07:59:38;;;;;;;2.37;1.07;;;;;;;;;;5055309;28;20036;-70
2021/05/25 08:02:04;;;;;;;4.30;1.10;;;;;;;;;;5066581;28;20024;-70
2021/05/25 08:04:29;;;;;;;1.63;0.70;;;;;;;;;;5070046;28;20048;-71
2021/05/25 08:06:55;;;;;;;1.47;0.90;;;;;;;;;;5070102;28;20036;-71
2021/05/25 08:09:20;;;;;;;4.17;1.30;;;;;;;;;;5070131;28;20265;-72
2021/05/25 08:11:45;;;;;;;3.77;1.30;;;;;;;;;;5070611;28;20029;-72
2021/05/25 08:14:11;;;;;;;2.33;1.30;;;;;;;;;;5069346;28;20472;-71
2021/05/25 08:16:40;;;;;;;4.77;1.40;;;;;;;;;;5060561;28;20388;-71
2021/05/25 08:21:37;;;;;;;3.90;1.50;;;;;;;;;;5071056;28;20025;-71
2021/05/25 08:24:02;;;;;;;4.00;1.30;;;;;;;;;;5070618;28;20051;-71
2021/05/25 08:26:28;;;;;;;4.10;1.60;;;;;;;;;;5070052;28;20032;-72
2021/05/25 08:28:54;;;;;;;2.80;1.40;;;;;;;;;;5070559;28;20020;-72
2021/05/25 08:31:19;;;;;;;2.83;1.17;;;;;;;;;;5066301;28;20028;-71
2021/05/25 08:33:44;;;;;;;4.00;1.40;;;;;;;;;;5074473;28;20027;-71
2021/05/25 08:36:10;;;;;;;4.00;1.50;;;;;;;;;;5071656;28;20078;-71
2021/05/25 08:38:36;;;;;;;2.63;1.00;;;;;;;;;;5072904;28;20263;-71
2021/05/25 08:41:03;;;;;;;8.23;1.30;;;;;;;;;;5073100;28;20030;-71
2021/05/25 08:43:28;;;;;;;3.10;1.30;;;;;;;;;;5073328;28;20025;-71
2021/05/25 08:45:53;;;;;;;2.37;1.13;;;;;;;;;;5074417;28;20020;-71
2021/05/25 08:48:19;;;;;;;2.37;1.10;;;;;;;;;;5073301;28;20095;-71
2021/05/25 08:50:45;;;;;;;3.13;1.30;;;;;;;;;;5073044;28;20070;-71
2021/05/25 08:53:10;;;;;;;5.13;1.67;;;;;;;;;;5072931;28;20036;-71
2021/05/25 08:55:36;;;;;;;2.83;1.20;;;;;;;;;;5073844;28;20028;-71
2021/05/25 08:58:02;;;;;;;2.60;1.20;;;;;;;;;;5078706;28;20035;-72
2021/05/25 09:00:27;;;;;;;3.13;1.47;;;;;;;;;;5073895;28;20474;-72
2021/05/25 09:02:53;;;;;;;4.00;1.40;;;;;;;;;;5071826;28;20028;-72
2021/05/25 09:05:19;;;;;;;5.80;1.50;;;;;;;;;;5073532;28;20408;-72
2021/05/25 09:07:49;;;;;;;4.27;1.43;;;;;;;;;;5067782;28;20388;-72
2021/05/25 09:10:15;;;;;;;3.43;1.50;;;;;;;;;;5073750;28;20028;-72
2021/05/25 09:12:42;;;;;;;2.43;1.20;;;;;;;;;;5072217;28;20042;-72
2021/05/25 09:15:08;;;;;;;5.87;1.43;;;;;;;;;;5073723;28;20035;-72
2021/05/25 09:17:33;;;;;;;3.00;1.40;;;;;;;;;;5073493;28;20028;-71
2021/05/25 09:19:59;;;;;;;2.93;1.57;;;;;;;;;;5074052;28;20387;-72
2021/05/25 09:22:28;;;;;;;3.07;1.23;;;;;;;;;;5069119;28;20078;-72
2021/05/25 09:24:54;;;;;;;3.37;1.50;;;;;;;;;;5084115;28;20028;-72
2021/05/25 09:27:38;;;;;;;2.40;1.17;;;;;;;;;;5073124;28;20495;-72
2021/05/25 09:30:11;;;;;;;2.33;1.23;;;;;;;;;;5061145;28;20025;-72
2021/05/25 09:32:43;;;;;;;4.47;1.30;;;;;;;;;;5066436;28;20024;-72
2021/05/25 09:35:09;;;;;;;3.93;1.07;;;;;;;;;;5061814;28;20103;-72
2021/05/25 09:37:48;;;;;;;3.03;1.30;;;;;;;;;;5069693;28;20111;-72
2021/05/25 09:40:15;;;;;;;2.87;1.10;;;;;;;;;;5073578;28;20371;-72
2021/05/25 09:42:40;;;;;;;2.10;0.97;;;;;;;;;;5070404;28;20428;-69
2021/05/25 09:45:09;;;;;;;3.00;1.20;;;;;;;;;;5071692;28;20036;-69
2021/05/25 09:47:39;;;;;;;2.13;0.97;;;;;;;;;;5072579;28;20095;-69
2021/05/25 09:50:06;;;;;;;3.17;1.30;;;;;;;;;;5064340;28;20032;-72
2021/05/25 09:52:31;;;;;;;1.37;0.90;;;;;;;;;;5072334;28;20024;-70
2021/05/25 09:55:03;;;;;;;1.63;0.93;;;;;;;;;;5071935;28;20051;-70
2021/05/25 09:57:44;;;;;;;2.90;0.97;;;;;;;;;;5075568;28;20089;-70
2021/05/25 10:00:38;;;;;;;2.20;1.20;;;;;;;;;;5070479;28;20025;-70
2021/05/25 10:03:04;;;;;;;3.33;1.33;;;;;;;;;;5072266;28;20123;-72
2021/05/25 10:05:30;;;;;;;2.40;1.20;;;;;;;;;;5067481;28;20498;-72
2021/05/25 10:07:55;;;;;;;1.83;1.00;;;;;;;;;;5072708;28;20432;-72
2021/05/25 10:10:21;;;;;;;2.43;1.00;;;;;;;;;;5072521;28;20464;-72
2021/05/25 10:12:47;;;;;;;1.87;1.00;;;;;;;;;;5069286;28;20023;-70
2021/05/25 10:15:13;;;;;;;1.33;0.83;;;;;;;;;;5072867;28;20116;-70
2021/05/25 10:20:04;;;;;;;2.40;1.30;;;;;;;;;;5083517;28;20028;-70
2021/05/25 10:22:29;;;;;;;2.13;1.13;;;;;;;;;;5070553;28;20464;-70
2021/05/25 10:24:55;;;;;;;4.17;1.30;;;;;;;;;;5070562;28;20028;-70
2021/05/25 10:27:20;;;;;;;2.40;1.13;;;;;;;;;;5070880;28;20067;-70
2021/05/25 10:29:46;;;;;;;5.47;1.23;;;;;;;;;;5071669;28;20383;-70
2021/05/25 10:32:21;;;;;;;4.17;1.50;;;;;;;;;;5071500;28;20364;-70
2021/05/25 10:34:50;;;;;;;2.27;1.10;;;;;;;;;;5070486;28;20021;-70
2021/05/25 10:37:15;;;;;;;3.70;1.27;;;;;;;;;;5069920;28;20036;-69
2021/05/25 10:39:43;;;;;;;2.77;1.20;;;;;;;;;;5070935;28;20032;-69
2021/05/25 10:42:17;;;;;;;4.47;1.20;;;;;;;;;;5070449;28;20105;-69
2021/05/25 10:44:46;;;;;;;5.77;1.30;;;;;;;;;;5069930;28;20036;-69
2021/05/25 10:47:35;;;;;;;2.50;1.37;;;;;;;;;;5072097;28;20024;-69
2021/05/25 10:50:15;;;;;;;3.10;1.20;;;;;;;;;;5069151;28;20313;-69
2021/05/25 10:53:01;;;;;;;4.73;1.43;;;;;;;;;;5077183;28;20044;-69
2021/05/25 10:55:28;;;;;;;3.20;1.30;;;;;;;;;;5070568;28;20431;-70
2021/05/25 10:57:53;;;;;;;2.47;1.30;;;;;;;;;;5071598;28;20024;-70
2021/05/25 11:00:19;;;;;;;2.27;1.23;;;;;;;;;;5072677;28;20445;-70
2021/05/25 11:02:51;;;;;;;3.63;1.30;;;;;;;;;;5061422;28;20432;-70
2021/05/25 11:05:36;;;;;;;1.95;1.05;;;;;;;;;;5069447;28;20139;-70
2021/05/25 11:08:20;;;;;;;3.70;1.15;;;;;;;;;;5068592;28;20410;-70
2021/05/25 11:10:58;;;;;;;3.05;1.13;;;;;;;;;;5070505;28;20081;-70
2021/05/25 11:13:27;;;;;;;2.40;0.90;;;;;;;;;;5071600;28;20372;-70
2021/05/25 11:16:02;;;;;;;1.90;1.10;;;;;;;;;;5071299;28;20383;-70
2021/05/25 11:18:37;;;;;;;2.10;1.13;;;;;;;;;;5069787;28;20040;-70
2021/05/25 11:21:22;;;;;;;4.53;1.20;;;;;;;;;;5068742;28;20452;-70
2021/05/25 11:23:51;;;;;;;2.97;0.97;;;;;;;;;;5063764;28;20028;-70
2021/05/25 11:26:35;;;;;;;2.57;1.27;;;;;;;;;;5069103;28;20483;-70
2021/05/25 11:29:17;;;;;;;3.50;1.10;;;;;;;;;;5067278;28;20051;-70
2021/05/25 11:31:42;;;;;;;3.30;1.30;;;;;;;;;;5070132;28;20395;-70
2021/05/25 11:34:08;;;;;;;3.17;1.20;;;;;;;;;;5070973;28;20028;-70
2021/05/25 11:36:35;;;;;;;3.17;1.30;;;;;;;;;;5070740;28;20472;-70
2021/05/25 11:39:00;;;;;;;3.97;1.27;;;;;;;;;;5071174;28;20341;-70
2021/05/25 11:41:26;;;;;;;3.27;1.60;;;;;;;;;;5073895;28;20028;-70
2021/05/25 11:44:03;;;;;;;4.03;1.73;;;;;;;;;;5071252;28;20029;-70
2021/05/25 11:46:41;;;;;;;3.17;1.60;;;;;;;;;;5068620;28;20024;-70
2021/05/25 11:49:07;;;;;;;3.50;1.37;;;;;;;;;;5070637;28;20020;-70
2021/05/25 11:51:32;;;;;;;5.37;1.60;;;;;;;;;;5061754;28;20048;-70
2021/05/25 11:54:07;;;;;;;3.03;1.47;;;;;;;;;;5067939;28;20078;-69
2021/05/25 11:56:32;;;;;;;2.90;1.30;;;;;;;;;;5069561;28;20086;-69
2021/05/25 11:58:57;;;;;;;4.20;1.60;;;;;;;;;;5070408;28;20028;-69
2021/05/25 12:01:37;;;;;;;2.80;1.00;;;;;;;;;;5063747;28;20060;-69
2021/05/25 12:04:06;;;;;;;1.17;0.70;;;;;;;;;;5077182;28;20500;-69
2021/05/25 12:06:31;;;;;;;2.80;1.00;;;;;;;;;;5077378;28;20035;-70
2021/05/25 12:09:05;;;;;;;2.50;1.03;;;;;;;;;;5075885;28;20024;-70
2021/05/25 12:11:34;;;;;;;2.40;1.13;;;;;;;;;;5075616;28;20025;-70
2021/05/25 12:13:59;;;;;;;3.47;1.20;;;;;;;;;;5076056;28;20028;-70
2021/05/25 12:16:26;;;;;;;3.10;1.10;;;;;;;;;;5074413;28;20017;-70
2021/05/25 12:18:51;;;;;;;3.43;1.20;;;;;;;;;;5073929;28;20036;-70
2021/05/25 12:21:16;;;;;;;4.40;1.97;;;;;;;;;;5069377;28;20029;-70
2021/05/25 12:23:44;;;;;;;7.07;1.60;;;;;;;;;;5079639;28;20036;-70
2021/05/25 12:26:11;;;;;;;5.57;1.50;;;;;;;;;;5082159;28;20024;-70
2021/05/25 12:28:38;;;;;;;4.73;1.17;;;;;;;;;;5072792;28;20027;-70
2021/05/25 12:31:04;;;;;;;1.67;0.80;;;;;;;;;;5071703;28;20078;-70
2021/05/25 12:33:30;;;;;;;1.60;0.70;;;;;;;;;;5077179;28;20016;-70
2021/05/25 12:36:14;;;;;;;1.93;0.70;;;;;;;;;;5078931;28;20535;-70
2021/05/25 12:38:39;;;;;;;1.10;0.90;;;;;;;;;;5079942;28;20028;-69
2021/05/25 12:41:05;;;;;;;0.83;0.50;;;;;;;;;;5076430;28;20031;-69
2021/05/25 12:43:31;;;;;;;3.03;0.70;;;;;;;;;;5073837;28;20040;-69
2021/05/25 12:46:09;;;;;;;1.17;0.50;;;;;;;;;;5067880;28;20028;-69
2021/05/25 12:48:39;;;;;;;0.90;0.50;;;;;;;;;;5068646;28;20104;-69
2021/05/25 12:51:05;;;;;;;2.07;0.50;;;;;;;;;;5066070;28;20026;-69
2021/05/25 12:53:30;;;;;;;0.97;0.60;;;;;;;;;;5074250;28;20032;-69
2021/05/25 12:56:02;;;;;;;0.97;0.57;;;;;;;;;;5071991;28;20020;-69
2021/05/25 12:58:36;;;;;;;2.13;0.50;;;;;;;;;;5070979;28;20044;-69
2021/05/25 13:01:20;;;;;;;2.17;0.60;;;;;;;;;;5072818;28;20457;-69
2021/05/25 13:03:45;;;;;;;0.80;0.50;;;;;;;;;;5072274;28;20037;-69
2021/05/25 13:06:13;;;;;;;1.43;0.70;;;;;;;;;;5073123;28;20024;-69
2021/05/25 13:08:40;;;;;;;2.10;0.43;;;;;;;;;;5073483;28;20543;-69
2021/05/25 13:11:06;;;;;;;0.40;0.30;;;;;;;;;;5075473;28;20020;-70
2021/05/25 13:13:36;;;;;;;4.77;1.00;;;;;;;;;;5075447;28;20086;-70
2021/05/25 13:16:01;;;;;;;1.47;0.80;;;;;;;;;;5077046;28;20119;-70
2021/05/25 13:18:43;;;;;;;1.37;0.70;;;;;;;;;;5074245;28;20116;-70
2021/05/25 13:21:10;;;;;;;3.38;1.25;;;;;;;;;;5075228;28;20123;-70
2021/05/25 13:23:35;;;;;;;2.80;0.93;;;;;;;;;;5075093;28;20035;-70
2021/05/25 13:26:17;;;;;;;2.47;0.90;;;;;;;;;;5071003;28;20411;-70
2021/05/25 13:28:48;;;;;;;2.45;0.90;;;;;;;;;;5075441;28;20074;-70
2021/05/25 13:31:18;;;;;;;3.43;0.70;;;;;;;;;;5076158;28;20021;-70
2021/05/25 13:33:44;;;;;;;1.07;0.77;;;;;;;;;;5071421;28;20394;-70
2021/05/25 13:36:09;;;;;;;3.07;0.97;;;;;;;;;;5077066;28;20039;-70
2021/05/25 13:38:35;;;;;;;1.67;0.80;;;;;;;;;;5073459;28;20074;-70
2021/05/25 13:41:00;;;;;;;1.90;0.70;;;;;;;;;;5074296;28;20024;-70
2021/05/25 13:43:25;;;;;;;2.20;1.00;;;;;;;;;;5067681;28;20025;-70
2021/05/25 13:45:50;;;;;;;2.13;0.97;;;;;;;;;;5061962;28;20039;-70
2021/05/25 13:48:16;;;;;;;1.13;0.70;;;;;;;;;;5066246;28;20200;-70
2021/05/25 13:50:41;;;;;;;2.77;0.80;;;;;;;;;;5069493;28;20028;-69
2021/05/25 13:53:06;;;;;;;3.53;1.30;;;;;;;;;;5069479;28;20116;-69
2021/05/25 13:55:35;;;;;;;2.27;1.00;;;;;;;;;;5079713;28;20076;-70
2021/05/25 13:58:02;;;;;;;2.30;0.90;;;;;;;;;;5076377;28;20384;-70
2021/05/25 14:03:11;;;;;;;2.90;1.00;;;;;;;;;;5073408;28;20082;-69
2021/05/25 14:05:37;;;;;;;5.47;1.40;;;;;;;;;;5070780;28;20052;-69
2021/05/25 14:08:02;;;;;;;1.27;0.63;;;;;;;;;;5074582;28;20103;-69
2021/05/25 14:10:31;;;;;;;1.13;0.60;;;;;;;;;;5070492;28;20507;-69
2021/05/25 14:12:57;;;;;;;2.43;0.70;;;;;;;;;;5070406;28;20460;-69
2021/05/25 14:15:22;;;;;;;3.47;0.60;;;;;;;;;;5072139;28;20093;-69
2021/05/25 14:17:47;;;;;;;1.43;0.50;;;;;;;;;;5074468;28;20373;-69
2021/05/25 14:20:12;;;;;;;1.30;0.60;;;;;;;;;;5063714;28;20023;-69
2021/05/25 14:22:38;;;;;;;2.20;0.70;;;;;;;;;;5075690;28;20039;-69
2021/05/25 14:25:04;;;;;;;0.70;0.50;;;;;;;;;;5070240;28;20523;-69
2021/05/25 14:27:29;;;;;;;1.47;0.77;;;;;;;;;;5067934;28;20028;-69
2021/05/25 14:29:54;;;;;;;1.13;0.60;;;;;;;;;;5080661;28;20048;-69
2021/05/25 14:32:19;;;;;;;1.50;0.70;;;;;;;;;;5072436;28;20031;-69
2021/05/25 14:34:45;;;;;;;1.80;0.70;;;;;;;;;;5070046;28;20380;-69
2021/05/25 14:37:10;;;;;;;1.47;0.60;;;;;;;;;;5068846;28;20036;-69
2021/05/25 14:39:36;;;;;;;1.40;0.80;;;;;;;;;;5070700;28;20462;-69
2021/05/25 14:42:01;;;;;;;2.10;1.00;;;;;;;;;;5070271;28;20028;-69
2021/05/25 14:44:26;;;;;;;1.67;0.70;;;;;;;;;;5074363;28;20464;-69
2021/05/25 14:46:54;;;;;;;1.23;0.80;;;;;;;;;;5086157;28;20103;-69
2021/05/25 14:49:20;;;;;;;3.37;0.90;;;;;;;;;;5065140;28;20029;-69